createdAt,value
2019-05-12T00:00:25.280Z,3.12
2019-05-12T00:02:59.342Z,2.50
2019-05-12T00:05:31.658Z,2.40
2019-05-12T00:08:04.054Z,2.60
2019-05-12T00:10:38.526Z,3.12
2019-05-12T00:13:10.136Z,3.15
2019-05-12T00:15:42.823Z,2.15
2019-05-12T00:18:14.865Z,2.62
2019-05-12T00:20:47.693Z,1.85
2019-05-12T00:23:27.447Z,3.50
2019-05-12T00:25:53.953Z,5.17
2019-05-12T00:28:28.413Z,6.22
2019-05-12T00:31:00.751Z,5.03
2019-05-12T00:33:33.419Z,4.53
2019-05-12T00:36:07.900Z,2.60
2019-05-12T00:38:39.923Z,2.47
2019-05-12T00:41:12.280Z,1.98
2019-05-12T00:43:44.567Z,2.45
2019-05-12T00:46:18.341Z,1.57
2019-05-12T00:48:50.529Z,2.08
2019-05-12T00:51:22.906Z,2.50
2019-05-12T00:53:55.194Z,2.60
2019-05-12T00:56:28.496Z,2.58
2019-05-12T00:59:00.761Z,3.33
2019-05-12T01:01:33.246Z,2.25
2019-05-12T01:04:05.393Z,2.35
2019-05-12T01:06:38.727Z,2.75
2019-05-12T01:09:11.284Z,1.90
2019-05-12T01:11:43.741Z,2.45
2019-05-12T01:14:18.478Z,1.45
2019-05-12T01:16:49.944Z,1.90
2019-05-12T01:19:22.063Z,2.37
2019-05-12T01:21:54.476Z,2.45
2019-05-12T01:24:28.217Z,1.35
2019-05-12T01:27:00.572Z,2.10
2019-05-12T01:29:32.953Z,3.47
2019-05-12T01:32:07.881Z,3.90
2019-05-12T01:37:23.868Z,3.58
2019-05-12T01:39:59.607Z,3.87
2019-05-12T01:42:30.159Z,2.77
2019-05-12T01:45:02.548Z,2.62
2019-05-12T01:47:35.026Z,3.17
2019-05-12T01:50:09.177Z,3.37
2019-05-12T01:52:41.408Z,3.08
2019-05-12T01:55:13.685Z,3.33
2019-05-12T01:57:48.468Z,3.40
2019-05-12T02:00:19.746Z,4.05
2019-05-12T02:02:52.341Z,4.40
2019-05-12T02:05:24.705Z,3.67
2019-05-12T02:07:58.867Z,3.62
2019-05-12T02:10:31.103Z,3.35
2019-05-12T02:13:03.581Z,2.17
2019-05-12T02:15:38.094Z,1.70
2019-05-12T02:18:09.981Z,1.82
2019-05-12T02:20:42.446Z,2.12
2019-05-12T02:23:14.717Z,1.77
2019-05-12T02:25:48.375Z,2.12
2019-05-12T02:28:20.592Z,2.05
2019-05-12T02:30:53.073Z,2.33
2019-05-12T02:33:25.537Z,2.77
2019-05-12T02:35:57.910Z,2.65
2019-05-12T02:38:30.296Z,2.55
2019-05-12T02:41:04.749Z,2.40
2019-05-12T02:43:36.731Z,2.98
2019-05-12T02:46:08.842Z,2.58
2019-05-12T02:48:41.215Z,2.95
2019-05-12T02:51:15.560Z,2.87
2019-05-12T02:53:47.598Z,4.03
2019-05-12T02:56:20.103Z,3.62
2019-05-12T02:58:54.606Z,2.58
2019-05-12T03:01:28.810Z,2.55
2019-05-12T03:04:01.010Z,2.08
2019-05-12T03:06:36.134Z,1.98
2019-05-12T03:09:07.903Z,2.15
2019-05-12T03:11:40.384Z,1.90
2019-05-12T03:14:15.730Z,1.82
2019-05-12T03:16:46.874Z,2.62
2019-05-12T03:19:19.339Z,2.12
2019-05-12T03:21:54.611Z,2.40
2019-05-12T03:24:25.723Z,2.27
2019-05-12T03:26:58.011Z,2.00
2019-05-12T03:29:30.470Z,2.60
2019-05-12T03:32:08.326Z,2.45
2019-05-12T03:34:38.701Z,2.42
2019-05-12T03:37:17.202Z,2.95
2019-05-12T03:39:44.909Z,2.52
2019-05-12T03:42:17.179Z,2.22
2019-05-12T03:44:49.462Z,2.20
2019-05-12T03:47:24.784Z,1.85
2019-05-12T03:49:55.713Z,2.45
2019-05-12T03:52:28.089Z,2.60
2019-05-12T03:55:00.361Z,2.47
2019-05-12T03:57:34.492Z,2.00
2019-05-12T04:00:07.360Z,2.65
2019-05-12T04:02:39.738Z,2.15
2019-05-12T04:05:15.127Z,3.15
2019-05-12T04:07:45.835Z,2.37
2019-05-12T04:10:18.402Z,2.50
2019-05-12T04:12:54.670Z,3.15
2019-05-12T04:15:25.925Z,3.45
2019-05-12T04:17:58.400Z,2.70
2019-05-12T04:20:30.883Z,3.70
2019-05-12T04:23:05.824Z,3.00
2019-05-12T04:25:50.865Z,3.27
2019-05-12T04:28:11.178Z,2.65
2019-05-12T04:30:44.555Z,2.85
2019-05-12T04:33:16.936Z,3.30
2019-05-12T04:35:49.222Z,2.87
2019-05-12T04:38:24.688Z,3.27
2019-05-12T04:40:56.020Z,3.08
2019-05-12T04:43:28.275Z,3.37
2019-05-12T04:46:00.856Z,3.12
2019-05-12T04:48:35.769Z,3.22
2019-05-12T04:51:07.059Z,3.42
2019-05-12T04:53:39.315Z,2.90
2019-05-12T04:56:19.902Z,3.33
2019-05-12T04:58:45.424Z,3.12
2019-05-12T05:01:17.782Z,2.90
2019-05-12T05:03:50.145Z,3.22
2019-05-12T05:06:25.053Z,3.02
2019-05-12T05:08:56.490Z,3.75
2019-05-12T05:11:28.484Z,3.72
2019-05-12T05:14:00.647Z,4.33
2019-05-12T05:16:34.594Z,4.10
2019-05-12T05:19:07.143Z,3.87
2019-05-12T05:21:39.310Z,3.75
2019-05-12T05:24:14.036Z,3.40
2019-05-12T05:26:45.506Z,3.75
2019-05-12T05:29:17.561Z,4.42
2019-05-12T05:31:49.837Z,3.90
2019-05-12T05:34:23.597Z,4.05
2019-05-12T05:37:01.236Z,3.27
2019-05-12T05:39:29.522Z,3.45
2019-05-12T05:42:01.680Z,3.60
2019-05-12T05:44:37.852Z,3.30
2019-05-12T05:47:07.775Z,3.10
2019-05-12T05:49:39.951Z,3.20
2019-05-12T05:52:13.738Z,1.82
2019-05-12T05:54:46.045Z,2.40
2019-05-12T05:57:20.064Z,1.67
2019-05-12T05:59:53.794Z,2.10
2019-05-12T06:02:32.049Z,2.05
2019-05-12T06:04:59.931Z,2.27
2019-05-12T06:07:35.776Z,2.17
2019-05-12T06:10:09.302Z,1.72
2019-05-12T06:15:14.295Z,1.87
2019-05-12T06:17:46.736Z,1.60
2019-05-12T06:20:19.114Z,1.98
2019-05-12T06:22:54.629Z,1.90
2019-05-12T06:25:26.385Z,2.10
2019-05-12T06:28:01.465Z,1.77
2019-05-12T06:30:37.424Z,1.70
2019-05-12T06:33:06.696Z,1.42
2019-05-12T06:35:42.319Z,1.82
2019-05-12T06:38:13.543Z,2.10
2019-05-12T06:40:45.807Z,1.62
2019-05-12T06:43:18.979Z,1.47
2019-05-12T06:45:51.082Z,1.77
2019-05-12T06:48:25.782Z,1.52
2019-05-12T06:50:57.426Z,2.33
2019-05-12T06:53:31.104Z,1.90
2019-05-12T06:56:04.595Z,2.22
2019-05-12T06:58:36.809Z,1.57
2019-05-12T07:01:16.692Z,2.17
2019-05-12T07:03:44.062Z,1.90
2019-05-12T07:06:19.799Z,1.62
2019-05-12T07:09:02.395Z,1.87
2019-05-12T07:11:24.649Z,2.12
2019-05-12T07:14:04.124Z,2.10
2019-05-12T07:16:30.900Z,1.85
2019-05-12T07:19:07.807Z,2.02
2019-05-12T07:21:37.390Z,2.00
2019-05-12T07:24:11.243Z,1.42
2019-05-12T07:26:44.285Z,1.60
2019-05-12T07:29:17.485Z,1.40
2019-05-12T07:31:49.860Z,1.17
2019-05-12T07:34:24.034Z,1.45
2019-05-12T07:36:56.655Z,1.47
2019-05-12T07:39:28.826Z,1.50
2019-05-12T07:42:03.490Z,1.47
2019-05-12T07:44:39.979Z,1.62
2019-05-12T07:47:10.761Z,2.10
2019-05-12T07:49:44.088Z,1.55
2019-05-12T07:52:16.538Z,1.65
2019-05-12T07:54:49.015Z,1.90
2019-05-12T07:57:21.472Z,1.80
2019-05-12T07:59:54.193Z,2.72
2019-05-12T08:02:31.748Z,2.33
2019-05-12T08:05:00.338Z,2.42
2019-05-12T08:07:33.730Z,1.80
2019-05-12T08:10:17.709Z,2.30
2019-05-12T08:12:44.518Z,2.30
2019-05-12T08:15:16.810Z,2.30
2019-05-12T08:17:54.124Z,2.27
2019-05-12T08:20:23.891Z,1.95
2019-05-12T08:22:59.564Z,1.85
2019-05-12T08:25:30.099Z,2.45
2019-05-12T08:28:12.492Z,1.65
2019-05-12T08:30:45.743Z,1.95
2019-05-12T08:33:11.416Z,1.98
2019-05-12T08:35:44.595Z,1.65
2019-05-12T08:38:17.090Z,1.80
2019-05-12T08:40:51.267Z,1.67
2019-05-12T08:43:24.064Z,1.70
2019-05-12T08:46:00.320Z,1.80
2019-05-12T08:48:30.375Z,1.70
2019-05-12T08:51:07.089Z,1.98
2019-05-12T08:53:36.662Z,1.22
2019-05-12T08:56:13.019Z,2.02
2019-05-12T08:58:48.297Z,1.87
2019-05-12T09:01:20.377Z,1.63
2019-05-12T09:03:53.241Z,1.98
2019-05-12T09:06:25.192Z,1.27
2019-05-12T09:08:57.647Z,1.72
2019-05-12T09:11:30.023Z,1.92
2019-05-12T09:14:03.548Z,1.72
2019-05-12T09:16:36.513Z,1.10
2019-05-12T09:19:10.068Z,1.55
2019-05-12T09:21:44.304Z,1.47
2019-05-12T09:24:21.989Z,2.27
2019-05-12T09:26:50.412Z,1.82
2019-05-12T09:29:25.126Z,1.80
2019-05-12T09:31:59.348Z,1.73
2019-05-12T09:34:30.811Z,2.22
2019-05-12T09:37:03.985Z,1.77
2019-05-12T09:39:42.875Z,1.70
2019-05-12T09:42:10.490Z,1.72
2019-05-12T09:44:43.920Z,1.80
2019-05-12T09:47:23.065Z,1.62
2019-05-12T09:49:49.972Z,1.87
2019-05-12T09:52:26.988Z,2.17
2019-05-12T09:54:56.053Z,1.60
2019-05-12T09:57:32.361Z,1.30
2019-05-12T10:00:04.423Z,1.20
2019-05-12T10:02:38.497Z,1.65
2019-05-12T10:05:10.979Z,1.15
2019-05-12T10:07:44.526Z,1.47
2019-05-12T10:10:16.765Z,0.90
2019-05-12T10:12:50.603Z,1.32
2019-05-12T10:15:24.742Z,1.22
2019-05-12T10:18:00.215Z,0.90
2019-05-12T10:20:35.363Z,0.90
2019-05-12T10:23:04.994Z,1.00
2019-05-12T10:25:37.357Z,1.32
2019-05-12T10:28:12.827Z,0.90
2019-05-12T10:30:47.148Z,0.90
2019-05-12T10:33:17.859Z,1.20
2019-05-12T10:35:50.339Z,0.85
2019-05-12T10:38:24.166Z,0.70
2019-05-12T10:40:56.422Z,1.10
2019-05-12T10:43:28.692Z,0.68
2019-05-12T10:46:01.154Z,0.85
2019-05-12T10:48:33.974Z,1.07
2019-05-12T10:51:06.328Z,0.50
2019-05-12T10:53:38.705Z,0.70
2019-05-12T10:56:11.281Z,0.82
2019-05-12T10:58:44.017Z,0.75
2019-05-12T11:01:16.338Z,0.70
2019-05-12T11:03:50.811Z,1.00
2019-05-12T11:06:24.275Z,0.85
2019-05-12T11:08:56.515Z,1.00
2019-05-12T11:11:32.882Z,0.80
2019-05-12T11:14:03.969Z,0.80
2019-05-12T11:16:36.215Z,0.90
2019-05-12T11:19:10.654Z,0.95
2019-05-12T11:21:44.276Z,0.95
2019-05-12T11:24:16.508Z,1.32
2019-05-12T11:26:48.888Z,1.15
2019-05-12T11:29:23.370Z,1.30
2019-05-12T11:31:55.582Z,1.60
2019-05-12T11:34:27.637Z,1.62
2019-05-12T11:37:00.026Z,1.20
2019-05-12T11:39:36.676Z,1.10
2019-05-12T11:42:06.193Z,1.47
2019-05-12T11:44:39.800Z,1.20
2019-05-12T11:47:17.001Z,1.37
2019-05-12T11:49:46.203Z,1.40
2019-05-12T11:52:19.493Z,1.42
2019-05-12T11:54:53.746Z,1.52
2019-05-12T11:57:30.150Z,1.72
2019-05-12T12:00:02.279Z,1.62
2019-05-12T12:02:34.267Z,1.30
2019-05-12T12:05:07.473Z,1.42
2019-05-12T12:07:50.605Z,1.47
2019-05-12T12:10:14.248Z,1.17
2019-05-12T12:12:49.302Z,1.40
2019-05-12T12:15:25.630Z,1.17
2019-05-12T12:17:54.500Z,1.37
2019-05-12T12:20:26.977Z,1.47
2019-05-12T12:23:00.128Z,1.27
2019-05-12T12:25:34.204Z,1.10
2019-05-12T12:28:06.741Z,1.42
2019-05-12T12:30:39.039Z,0.90
2019-05-12T12:33:11.512Z,1.50
2019-05-12T12:35:44.911Z,1.40
2019-05-12T12:38:17.375Z,1.70
2019-05-12T12:40:49.663Z,1.30
2019-05-12T12:43:21.918Z,0.90
2019-05-12T12:46:01.676Z,1.10
2019-05-12T12:48:33.933Z,1.00
2019-05-12T12:51:06.430Z,1.95
2019-05-12T12:53:38.904Z,2.25
2019-05-12T12:56:16.150Z,2.40
2019-05-12T12:58:45.395Z,3.52
2019-05-12T13:01:26.872Z,2.37
2019-05-12T13:03:53.595Z,2.15
2019-05-12T13:06:25.981Z,1.57
2019-05-12T13:08:58.476Z,2.67
2019-05-12T13:11:34.838Z,2.35
2019-05-12T13:14:05.576Z,2.08
2019-05-12T13:16:38.056Z,1.52
2019-05-12T13:19:13.179Z,0.95
2019-05-12T13:21:44.223Z,1.05
2019-05-12T13:24:16.714Z,1.27
2019-05-12T13:26:49.194Z,0.82
2019-05-12T13:29:26.320Z,1.17
2019-05-12T13:31:55.375Z,1.00
2019-05-12T13:34:28.946Z,0.85
2019-05-12T13:37:03.466Z,1.20
2019-05-12T13:39:35.678Z,1.10
2019-05-12T13:42:10.284Z,1.45
2019-05-12T13:44:43.612Z,1.20
2019-05-12T13:47:15.848Z,0.80
2019-05-12T13:49:48.242Z,0.72
2019-05-12T13:52:26.286Z,1.30
2019-05-12T13:54:54.310Z,0.93
2019-05-12T13:57:26.597Z,0.82
2019-05-12T14:00:06.457Z,1.10
2019-05-12T14:02:33.601Z,1.60
2019-05-12T14:05:11.314Z,1.30
2019-05-12T14:07:40.504Z,1.20
2019-05-12T14:10:14.021Z,0.90
2019-05-12T14:12:46.575Z,0.88
2019-05-12T14:15:19.052Z,1.12
2019-05-12T14:17:53.945Z,1.20
2019-05-12T14:20:25.647Z,1.30
2019-05-12T14:22:57.799Z,1.15
2019-05-12T14:25:32.282Z,1.67
2019-05-12T14:28:05.401Z,1.67
2019-05-12T14:30:41.397Z,1.25
2019-05-12T14:33:12.022Z,1.52
2019-05-12T14:35:46.004Z,1.52
2019-05-12T14:38:19.415Z,1.30
2019-05-12T14:40:53.654Z,0.80
2019-05-12T14:43:25.915Z,0.98
2019-05-12T14:46:00.320Z,1.05
2019-05-12T14:48:33.573Z,0.90
2019-05-12T14:51:05.810Z,1.20
2019-05-12T14:53:39.719Z,0.90
2019-05-12T14:56:14.054Z,0.65
2019-05-12T14:58:50.164Z,0.90
2019-05-12T15:01:19.709Z,1.00
2019-05-12T15:03:53.533Z,0.57
2019-05-12T15:06:29.583Z,1.32
2019-05-12T15:08:59.582Z,1.20
2019-05-12T15:11:34.062Z,1.12
2019-05-12T15:14:05.680Z,1.10
2019-05-12T15:16:40.711Z,1.77
2019-05-12T15:19:13.917Z,1.30
2019-05-12T15:21:45.874Z,2.35
2019-05-12T15:24:19.119Z,2.55
2019-05-12T15:26:57.461Z,1.70
2019-05-12T15:29:25.139Z,1.98
2019-05-12T15:31:57.521Z,2.00
2019-05-12T15:34:29.780Z,1.82
2019-05-12T15:37:03.978Z,0.93
2019-05-12T15:39:35.858Z,1.50
2019-05-12T15:42:08.028Z,1.22
2019-05-12T15:44:40.420Z,1.00
2019-05-12T15:47:12.898Z,2.10
2019-05-12T15:49:45.358Z,1.57
2019-05-12T15:52:17.626Z,1.00
2019-05-12T15:54:51.401Z,1.12
2019-05-12T15:57:24.390Z,1.22
2019-05-12T15:59:56.820Z,1.20
2019-05-12T16:02:29.091Z,2.27
2019-05-12T16:05:04.148Z,1.40
2019-05-12T16:07:39.571Z,3.30
2019-05-12T16:10:11.335Z,2.60
2019-05-12T16:12:43.957Z,2.20
2019-05-12T16:15:19.127Z,1.98
2019-05-12T16:17:50.205Z,2.08
2019-05-12T16:20:22.471Z,1.67
2019-05-12T16:22:54.958Z,1.90
2019-05-12T16:25:30.655Z,1.98
2019-05-12T16:28:01.748Z,1.70
2019-05-12T16:30:34.127Z,1.40
2019-05-12T16:33:06.580Z,1.10
2019-05-12T16:35:39.057Z,1.12
2019-05-12T16:38:17.207Z,1.72
2019-05-12T16:40:49.618Z,1.20
2019-05-12T16:43:19.271Z,1.57
2019-05-12T16:45:53.642Z,1.22
2019-05-12T16:48:32.227Z,2.65
2019-05-12T16:50:59.255Z,2.55
2019-05-12T16:53:31.630Z,3.02
2019-05-12T16:56:04.323Z,2.52
2019-05-12T16:58:36.589Z,2.75
2019-05-12T17:01:09.064Z,3.10
2019-05-12T17:03:41.449Z,3.05
2019-05-12T17:06:15.744Z,2.08
2019-05-12T17:08:48.322Z,2.47
2019-05-12T17:11:30.013Z,2.20
2019-05-12T17:14:00.766Z,1.60
2019-05-12T17:16:35.397Z,2.27
2019-05-12T17:19:06.096Z,3.10
2019-05-12T17:21:36.353Z,3.08
2019-05-12T17:24:08.613Z,2.70
2019-05-12T17:26:40.905Z,1.77
2019-05-12T17:29:13.869Z,2.98
2019-05-12T17:31:46.148Z,2.58
2019-05-12T17:34:18.532Z,2.50
2019-05-12T17:36:56.091Z,2.90
2019-05-12T17:39:29.362Z,2.55
2019-05-12T17:41:58.509Z,2.42
2019-05-12T17:44:35.988Z,3.12
2019-05-12T17:47:04.810Z,3.58
2019-05-12T17:49:39.018Z,2.10
2019-05-12T17:52:15.794Z,2.50
2019-05-12T17:54:44.886Z,2.95
2019-05-12T17:57:19.869Z,2.83
2019-05-12T17:59:51.188Z,2.20
2019-05-12T18:02:23.759Z,2.77
2019-05-12T18:05:01.247Z,4.75
2019-05-12T18:07:29.862Z,2.17
2019-05-12T18:10:04.186Z,2.37
2019-05-12T18:12:44.123Z,3.10
2019-05-12T18:15:10.543Z,4.23
2019-05-12T18:17:45.297Z,2.52
2019-05-12T18:20:17.146Z,1.80
2019-05-12T18:22:49.319Z,1.80
2019-05-12T18:25:30.177Z,1.80
2019-05-12T18:27:55.486Z,1.57
2019-05-12T18:30:27.962Z,2.77
2019-05-12T18:33:04.635Z,2.62
2019-05-12T18:35:34.365Z,1.40
2019-05-12T18:38:07.785Z,1.70
2019-05-12T18:40:40.549Z,2.10
2019-05-12T18:43:14.150Z,1.57
2019-05-12T18:45:48.632Z,2.10
2019-05-12T18:48:22.234Z,2.33
2019-05-12T18:50:54.653Z,2.53
2019-05-12T18:53:31.578Z,1.62
2019-05-12T18:56:00.834Z,2.08
2019-05-12T18:58:35.457Z,2.52
2019-05-12T19:01:08.232Z,2.60
2019-05-12T19:03:49.676Z,3.00
2019-05-12T19:06:14.631Z,2.43
2019-05-12T19:08:48.045Z,2.55
2019-05-12T19:11:25.466Z,2.72
2019-05-12T19:13:57.157Z,2.67
2019-05-12T19:16:28.211Z,2.65
2019-05-12T19:19:01.507Z,4.00
2019-05-12T19:21:33.982Z,3.17
2019-05-12T19:24:08.799Z,2.85
2019-05-12T19:26:40.495Z,2.37
2019-05-12T19:29:14.096Z,1.77
2019-05-12T19:31:52.363Z,3.00
2019-05-12T19:34:25.188Z,2.12
2019-05-12T19:36:54.285Z,1.72
2019-05-12T19:39:26.765Z,1.80
2019-05-12T19:41:58.919Z,2.67
2019-05-12T19:44:31.414Z,1.98
2019-05-12T19:47:03.886Z,2.30
2019-05-12T19:49:46.602Z,2.15
2019-05-12T19:52:10.156Z,1.85
2019-05-12T19:54:44.326Z,2.20
2019-05-12T19:57:21.902Z,2.33
2019-05-12T19:59:52.455Z,2.20
2019-05-12T20:04:56.976Z,2.30
2019-05-12T20:07:29.334Z,2.80
2019-05-12T20:10:04.448Z,2.33
2019-05-12T20:12:35.720Z,3.25
2019-05-12T20:15:08.198Z,3.33
2019-05-12T20:17:40.674Z,2.83
2019-05-12T20:20:13.714Z,3.62
2019-05-12T20:22:46.243Z,3.33
2019-05-12T20:25:18.617Z,3.10
2019-05-12T20:27:55.713Z,3.62
2019-05-12T20:30:28.001Z,3.52
2019-05-12T20:32:58.506Z,4.12
2019-05-12T20:35:30.863Z,3.70
2019-05-12T20:38:04.152Z,4.95
2019-05-12T20:40:37.577Z,4.35
2019-05-12T20:43:12.257Z,4.53
2019-05-12T20:45:45.801Z,4.65
2019-05-12T20:48:19.728Z,3.67
2019-05-12T20:50:52.893Z,4.85
2019-05-12T20:53:31.883Z,4.92
2019-05-12T20:55:59.278Z,5.28
2019-05-12T20:58:36.486Z,4.60
2019-05-12T21:01:05.990Z,5.28
2019-05-12T21:03:39.716Z,5.42
2019-05-12T21:06:14.417Z,4.65
2019-05-12T21:08:53.271Z,4.78
2019-05-12T21:11:20.811Z,5.58
2019-05-12T21:13:54.546Z,4.83
2019-05-12T21:16:34.366Z,5.67
2019-05-12T21:19:07.604Z,5.83
2019-05-12T21:21:38.359Z,5.65
2019-05-12T21:24:09.234Z,5.10
2019-05-12T21:26:43.886Z,5.72
2019-05-12T21:29:19.128Z,4.62
2019-05-12T21:31:49.532Z,4.85
2019-05-12T21:34:23.380Z,4.67
2019-05-12T21:36:59.071Z,5.67
2019-05-12T21:39:30.240Z,5.70
2019-05-12T21:42:03.999Z,5.75
2019-05-12T21:44:36.419Z,4.78
2019-05-12T21:47:10.597Z,3.58
2019-05-12T21:49:48.142Z,4.47
2019-05-12T21:52:16.906Z,4.30
2019-05-12T21:54:49.404Z,3.77
2019-05-12T21:57:27.508Z,4.72
2019-05-12T21:59:56.094Z,4.40
2019-05-12T22:02:30.777Z,4.58
2019-05-12T22:05:04.164Z,5.08
2019-05-12T22:07:39.822Z,3.83
2019-05-12T22:10:10.401Z,4.55
2019-05-12T22:12:44.080Z,4.97
2019-05-12T22:15:21.401Z,5.20
2019-05-12T22:18:04.622Z,5.80
2019-05-12T22:20:36.564Z,5.05
2019-05-12T22:23:11.834Z,4.92
2019-05-12T22:25:43.660Z,5.03
2019-05-12T22:28:16.176Z,4.87
2019-05-12T22:30:48.625Z,5.28
2019-05-12T22:33:21.322Z,4.67
2019-05-12T22:36:02.776Z,5.67
2019-05-12T22:38:27.606Z,5.42
2019-05-12T22:41:00.291Z,6.15
2019-05-12T22:43:40.814Z,4.40
2019-05-12T22:46:07.087Z,4.40
2019-05-12T22:48:40.688Z,5.42
2019-05-12T22:51:19.684Z,4.30
2019-05-12T22:53:47.183Z,5.55
2019-05-12T22:56:19.556Z,5.25
2019-05-12T22:58:59.898Z,5.53
2019-05-12T23:01:25.921Z,5.20
2019-05-12T23:03:58.417Z,4.97
2019-05-12T23:06:33.480Z,4.47
2019-05-12T23:09:06.584Z,5.00
2019-05-12T23:11:38.816Z,4.65
2019-05-12T23:14:12.796Z,5.10
2019-05-12T23:16:45.399Z,4.65
2019-05-12T23:19:17.874Z,5.28
2019-05-12T23:21:57.155Z,4.30
2019-05-12T23:24:24.363Z,4.60
2019-05-12T23:26:56.854Z,5.12
2019-05-12T23:29:31.007Z,4.70
2019-05-12T23:32:07.362Z,4.33
2019-05-12T23:34:37.355Z,4.55
2019-05-12T23:37:09.919Z,4.47
2019-05-12T23:39:44.237Z,4.92
2019-05-12T23:42:16.630Z,5.87
2019-05-12T23:44:49.093Z,4.60
2019-05-12T23:47:23.677Z,4.33
2019-05-12T23:49:55.903Z,4.53
2019-05-12T23:52:28.071Z,4.10
2019-05-12T23:55:00.453Z,4.40
2019-05-12T23:57:33.800Z,4.62
